createdAt,value
2016-10-25T00:00:24.741Z,36.74
2016-10-25T00:01:24.276Z,37.04
2016-10-25T00:02:23.695Z,36.94
2016-10-25T00:03:24.864Z,36.82
2016-10-25T00:04:24.757Z,36.92
2016-10-25T00:05:24.030Z,36.84
2016-10-25T00:06:24.987Z,36.92
2016-10-25T00:07:24.867Z,36.82
2016-10-25T00:08:24.146Z,36.84
2016-10-25T00:09:25.109Z,36.65
2016-10-25T00:10:24.641Z,36.65
2016-10-25T00:11:24.318Z,36.55
2016-10-25T00:12:25.118Z,36.63
2016-10-25T00:13:25.122Z,36.63
2016-10-25T00:14:24.436Z,36.74
2016-10-25T00:15:24.098Z,36.82
2016-10-25T00:16:24.937Z,36.55
2016-10-25T00:17:24.609Z,36.74
2016-10-25T00:18:23.811Z,36.82
2016-10-25T00:19:24.881Z,36.72
2016-10-25T00:20:24.729Z,36.82
2016-10-25T00:21:24.194Z,36.82
2016-10-25T00:22:24.963Z,36.92
2016-10-25T00:23:24.853Z,36.72
2016-10-25T00:24:24.163Z,36.74
2016-10-25T00:25:25.083Z,36.63
2016-10-25T00:26:24.927Z,36.82
2016-10-25T00:27:23.922Z,36.65
2016-10-25T00:28:23.929Z,36.84
2016-10-25T00:29:25.098Z,36.82
2016-10-25T00:30:24.061Z,36.72
2016-10-25T00:31:25.328Z,37.02
2016-10-25T00:32:25.173Z,36.72
2016-10-25T00:33:24.216Z,36.72
2016-10-25T00:34:23.922Z,36.82
2016-10-25T00:35:25.347Z,36.82
2016-10-25T00:36:24.652Z,36.82
2016-10-25T00:37:24.304Z,37.12
2016-10-25T00:38:25.361Z,36.72
2016-10-25T00:39:24.774Z,36.82
2016-10-25T00:40:23.968Z,36.92
2016-10-25T00:41:25.336Z,37.02
2016-10-25T00:42:24.896Z,36.92
2016-10-25T00:43:23.987Z,36.72
2016-10-25T00:44:25.178Z,36.92
2016-10-25T00:45:25.072Z,36.92
2016-10-25T00:46:24.018Z,36.63
2016-10-25T00:47:25.678Z,36.92
2016-10-25T00:48:25.144Z,36.82
2016-10-25T00:49:24.142Z,36.92
2016-10-25T00:50:24.083Z,36.92
2016-10-25T00:51:25.305Z,36.72
2016-10-25T00:52:24.645Z,36.63
2016-10-25T00:53:24.308Z,36.72
2016-10-25T00:54:25.128Z,36.92
2016-10-25T00:55:24.747Z,36.72
2016-10-25T00:56:24.389Z,36.92
2016-10-25T00:57:25.135Z,36.92
2016-10-25T00:58:24.610Z,36.82
2016-10-25T00:59:24.411Z,36.82
2016-10-25T01:00:25.468Z,36.92
2016-10-25T01:01:25.041Z,36.82
2016-10-25T01:02:24.430Z,36.72
2016-10-25T01:03:25.271Z,36.72
2016-10-25T01:04:25.116Z,36.92
2016-10-25T01:05:24.139Z,36.82
2016-10-25T01:06:24.146Z,36.82
2016-10-25T01:07:24.975Z,36.72
2016-10-25T01:08:24.547Z,36.92
2016-10-25T01:09:24.170Z,36.92
2016-10-25T01:10:25.417Z,36.92
2016-10-25T01:11:24.718Z,36.82
2016-10-25T01:12:25.563Z,36.92
2016-10-25T01:13:25.219Z,36.72
2016-10-25T01:14:24.893Z,36.82
2016-10-25T01:15:24.522Z,36.92
2016-10-25T01:16:25.654Z,36.72
2016-10-25T01:17:24.654Z,36.92
2016-10-25T01:18:24.232Z,36.92
2016-10-25T01:19:25.656Z,36.72
2016-10-25T01:20:25.084Z,36.63
2016-10-25T01:21:24.566Z,37.02
2016-10-25T01:22:25.369Z,36.92
2016-10-25T01:23:25.463Z,37.12
2016-10-25T01:24:24.649Z,37.02
2016-10-25T01:25:24.280Z,36.92
2016-10-25T01:26:25.019Z,36.92
2016-10-25T01:27:24.640Z,36.72
2016-10-25T01:28:24.304Z,36.92
2016-10-25T01:29:25.504Z,36.63
2016-10-25T01:30:24.814Z,36.82
2016-10-25T01:31:25.687Z,36.72
2016-10-25T01:32:25.639Z,36.53
2016-10-25T01:33:24.628Z,36.92
2016-10-25T01:34:24.350Z,36.44
2016-10-25T01:35:25.439Z,36.82
2016-10-25T01:36:25.059Z,37.3
2016-10-25T01:37:24.681Z,36.82
2016-10-25T01:38:25.735Z,36.72
2016-10-25T01:39:24.875Z,36.92
2016-10-25T01:40:24.703Z,36.82
2016-10-25T01:41:25.506Z,36.92
2016-10-25T01:42:25.352Z,36.82
2016-10-25T01:43:24.721Z,36.53
2016-10-25T01:44:25.468Z,36.92
2016-10-25T01:45:25.513Z,36.72
2016-10-25T01:46:24.728Z,36.82
2016-10-25T01:47:25.705Z,36.82
2016-10-25T01:48:25.552Z,36.92
2016-10-25T01:49:24.910Z,36.72
2016-10-25T01:50:25.828Z,37.02
2016-10-25T01:51:25.362Z,37.02
2016-10-25T01:52:24.669Z,37.02
2016-10-25T01:53:25.837Z,36.92
2016-10-25T01:54:25.485Z,36.92
2016-10-25T01:55:24.843Z,36.92
2016-10-25T01:56:24.501Z,36.92
2016-10-25T01:57:25.657Z,36.92
2016-10-25T01:58:24.967Z,36.82
2016-10-25T01:59:24.833Z,36.92
2016-10-25T02:00:25.912Z,36.92
2016-10-25T02:01:25.414Z,36.82
2016-10-25T02:02:24.539Z,36.92
2016-10-25T02:03:25.679Z,36.92
2016-10-25T02:04:25.213Z,36.92
2016-10-25T02:05:24.925Z,36.53
2016-10-25T02:06:25.805Z,36.82
2016-10-25T02:07:25.645Z,36.82
2016-10-25T02:08:24.641Z,36.82
2016-10-25T02:09:24.591Z,36.92
2016-10-25T02:10:25.767Z,36.92
2016-10-25T02:11:24.863Z,37.12
2016-10-25T02:12:24.660Z,37.19
2016-10-25T02:13:25.939Z,37.02
2016-10-25T02:14:25.198Z,37.02
2016-10-25T02:15:24.971Z,37.21
2016-10-25T02:16:26.061Z,37.02
2016-10-25T02:17:25.087Z,37.1
2016-10-25T02:18:24.964Z,36.82
2016-10-25T02:19:25.713Z,37.21
2016-10-25T02:20:25.495Z,37.21
2016-10-25T02:21:25.037Z,37.21
2016-10-25T02:22:25.771Z,37.21
2016-10-25T02:23:25.302Z,37.21
2016-10-25T02:24:24.747Z,36.72
2016-10-25T02:25:24.700Z,36.72
2016-10-25T02:26:25.757Z,36.63
2016-10-25T02:27:25.062Z,36.92
2016-10-25T02:28:26.017Z,36.82
2016-10-25T02:29:25.549Z,36.72
2016-10-25T02:30:25.174Z,36.92
2016-10-25T02:31:26.139Z,36.72
2016-10-25T02:32:25.672Z,36.8
2016-10-25T02:33:25.029Z,36.72
2016-10-25T02:34:26.148Z,36.92
2016-10-25T02:35:26.158Z,36.72
2016-10-25T02:36:25.417Z,37.02
2016-10-25T02:37:24.789Z,36.92
2016-10-25T02:38:26.095Z,36.53
2016-10-25T02:39:25.590Z,37.02
2016-10-25T02:40:24.857Z,36.72
2016-10-25T02:41:25.875Z,36.63
2016-10-25T02:42:25.711Z,36.44
2016-10-25T02:43:25.146Z,36.53
2016-10-25T02:44:25.994Z,36.72
2016-10-25T02:45:25.524Z,36.53
2016-10-25T02:46:24.848Z,36.53
2016-10-25T02:47:24.910Z,36.72
2016-10-25T02:48:25.958Z,36.8
2016-10-25T02:49:25.001Z,36.72
2016-10-25T02:50:26.235Z,36.82
2016-10-25T02:51:25.818Z,37.12
2016-10-25T02:52:25.437Z,37.02
2016-10-25T02:53:24.898Z,37.12
2016-10-25T02:54:26.204Z,36.8
2016-10-25T02:55:25.612Z,36.42
2016-10-25T02:56:25.230Z,36.82
2016-10-25T02:57:26.062Z,36.8
2016-10-25T02:58:25.371Z,36.72
2016-10-25T02:59:24.938Z,37
2016-10-25T03:00:26.398Z,36.82
2016-10-25T03:01:25.854Z,36.72
2016-10-25T03:02:25.277Z,37.02
2016-10-25T03:03:26.083Z,36.63
2016-10-25T03:04:25.929Z,36.82
2016-10-25T03:05:24.980Z,36.53
2016-10-25T03:06:26.206Z,36.53
2016-10-25T03:07:26.051Z,37.02
2016-10-25T03:08:25.360Z,36.82
2016-10-25T03:09:26.307Z,36.72
2016-10-25T03:10:25.862Z,36.44
2016-10-25T03:11:25.169Z,36.72
2016-10-25T03:12:25.027Z,36.42
2016-10-25T03:13:26.346Z,36.72
2016-10-25T03:14:25.654Z,36.72
2016-10-25T03:15:26.458Z,36.82
2016-10-25T03:16:26.465Z,36.92
2016-10-25T03:17:25.775Z,36.92
2016-10-25T03:18:25.381Z,37.02
2016-10-25T03:19:26.488Z,36.72
2016-10-25T03:20:25.899Z,36.92
2016-10-25T03:21:25.139Z,36.72
2016-10-25T03:22:26.456Z,36.42
2016-10-25T03:23:26.023Z,36.72
2016-10-25T03:24:25.112Z,36.72
2016-10-25T03:25:26.178Z,36.72
2016-10-25T03:26:25.879Z,37.02
2016-10-25T03:27:25.449Z,36.92
2016-10-25T03:28:26.421Z,36.72
2016-10-25T03:29:26.268Z,37.02
2016-10-25T03:30:25.576Z,37.02
2016-10-25T03:31:26.544Z,36.82
2016-10-25T03:32:26.439Z,36.72
2016-10-25T03:33:25.747Z,36.92
2016-10-25T03:34:25.182Z,36.72
2016-10-25T03:35:26.199Z,36.82
2016-10-25T03:36:25.870Z,36.82
2016-10-25T03:37:25.512Z,36.82
2016-10-25T03:38:26.685Z,36.82
2016-10-25T03:39:25.990Z,36.63
2016-10-25T03:40:25.540Z,36.63
2016-10-25T03:41:26.280Z,36.82
2016-10-25T03:42:26.125Z,36.72
2016-10-25T03:43:25.557Z,36.9
2016-10-25T03:44:26.675Z,36.82
2016-10-25T03:45:25.923Z,36.72
2016-10-25T03:46:25.576Z,36.82
2016-10-25T03:47:25.271Z,36.72
2016-10-25T03:48:26.052Z,36.82
2016-10-25T03:49:25.668Z,36.82
2016-10-25T03:50:26.639Z,36.63
2016-10-25T03:51:26.482Z,36.92
2016-10-25T03:52:25.797Z,36.72
2016-10-25T03:53:26.763Z,36.63
2016-10-25T03:54:26.657Z,36.72
2016-10-25T03:55:25.965Z,36.72
2016-10-25T03:56:25.335Z,36.63
2016-10-25T03:57:26.466Z,36.92
2016-10-25T03:58:26.146Z,36.82
2016-10-25T03:59:25.667Z,36.53
2016-10-25T04:00:26.541Z,36.82
2016-10-25T04:01:26.258Z,36.82
2016-10-25T04:02:25.689Z,36.44
2016-10-25T04:03:26.488Z,36.72
2016-10-25T04:04:26.330Z,36.72
2016-10-25T04:05:25.399Z,36.44
2016-10-25T04:06:26.610Z,36.63
2016-10-25T04:07:26.142Z,36.44
2016-10-25T04:08:25.762Z,36.44
2016-10-25T04:09:25.425Z,36.53
2016-10-25T04:10:26.655Z,36.63
2016-10-25T04:11:25.935Z,36.44
2016-10-25T04:12:26.808Z,36.44
2016-10-25T04:13:26.438Z,36.44
2016-10-25T04:14:26.009Z,36.44
2016-10-25T04:15:25.471Z,36.53
2016-10-25T04:16:26.875Z,36.53
2016-10-25T04:17:25.920Z,36.53
2016-10-25T04:18:25.486Z,36.63
2016-10-25T04:19:26.857Z,36.53
2016-10-25T04:20:26.302Z,36.53
2016-10-25T04:21:25.506Z,36.44
2016-10-25T04:22:26.865Z,36.53
2016-10-25T04:23:26.192Z,36.34
2016-10-25T04:24:25.526Z,36.53
2016-10-25T04:25:26.771Z,36.44
2016-10-25T04:26:26.615Z,36.53
2016-10-25T04:27:25.598Z,36.44
2016-10-25T04:28:26.849Z,36.44
2016-10-25T04:29:26.673Z,36.53
2016-10-25T04:30:25.684Z,36.44
2016-10-25T04:31:25.577Z,36.44
2016-10-25T04:32:26.533Z,36.44
2016-10-25T04:33:25.805Z,36.53
2016-10-25T04:34:25.649Z,36.44
2016-10-25T04:35:26.968Z,36.34
2016-10-25T04:36:25.982Z,36.53
2016-10-25T04:37:25.933Z,36.44
2016-10-25T04:38:26.778Z,36.34
2016-10-25T04:39:26.105Z,36.44
2016-10-25T04:40:25.640Z,36.53
2016-10-25T04:41:27.061Z,36.53
2016-10-25T04:42:26.521Z,36.53
2016-10-25T04:43:25.972Z,36.34
2016-10-25T04:44:26.869Z,36.53
2016-10-25T04:45:26.347Z,36.44
2016-10-25T04:46:26.049Z,36.53
2016-10-25T04:47:26.989Z,36.53
2016-10-25T04:48:26.786Z,36.53
2016-10-25T04:49:25.764Z,36.44
2016-10-25T04:50:25.713Z,36.34
2016-10-25T04:51:26.948Z,36.44
2016-10-25T04:52:26.202Z,36.44
2016-10-25T04:53:27.186Z,36.24
2016-10-25T04:54:27.012Z,36.34
2016-10-25T04:55:26.388Z,36.44
2016-10-25T04:56:26.098Z,36.63
2016-10-25T04:57:26.874Z,36.53
2016-10-25T04:58:26.200Z,36.44
2016-10-25T04:59:26.086Z,36.53
2016-10-25T05:00:27.225Z,36.44
2016-10-25T05:01:26.305Z,36.44
2016-10-25T05:02:25.794Z,36.53
2016-10-25T05:03:26.851Z,36.63
2016-10-25T05:04:26.790Z,36.53
2016-10-25T05:05:25.816Z,36.34
2016-10-25T05:06:27.033Z,36.53
2016-10-25T05:07:26.799Z,36.44
2016-10-25T05:08:25.875Z,36.63
2016-10-25T05:09:27.155Z,36.63
2016-10-25T05:10:27.036Z,36.53
2016-10-25T05:11:26.311Z,36.44
2016-10-25T05:12:27.282Z,36.24
2016-10-25T05:13:27.165Z,36.44
2016-10-25T05:14:26.482Z,36.34
2016-10-25T05:15:26.138Z,36.53
2016-10-25T05:16:27.331Z,36.44
2016-10-25T05:17:26.623Z,36.34
2016-10-25T05:18:26.234Z,36.24
2016-10-25T05:19:27.325Z,36.44
2016-10-25T05:20:26.400Z,36.53
2016-10-25T05:21:26.027Z,36.34
2016-10-25T05:22:27.331Z,36.44
2016-10-25T05:23:26.902Z,36.44
2016-10-25T05:24:26.001Z,36.44
2016-10-25T05:25:27.129Z,36.34
2016-10-25T05:26:26.960Z,36.44
2016-10-25T05:27:26.298Z,36.44
2016-10-25T05:28:25.975Z,36.44
2016-10-25T05:29:26.766Z,36.44
2016-10-25T05:30:26.095Z,36.34
2016-10-25T05:31:27.374Z,36.44
2016-10-25T05:32:27.256Z,36.53
2016-10-25T05:33:26.547Z,36.44
2016-10-25T05:34:26.065Z,36.34
2016-10-25T05:35:27.378Z,36.34
2016-10-25T05:36:26.698Z,36.53
2016-10-25T05:37:26.045Z,36.34
2016-10-25T05:38:27.503Z,36.24
2016-10-25T05:39:26.821Z,36.44
2016-10-25T05:40:26.375Z,36.15
2016-10-25T05:41:27.448Z,36.34
2016-10-25T05:42:26.940Z,36.24
2016-10-25T05:43:26.392Z,36.24
2016-10-25T05:44:27.226Z,36.24
2016-10-25T05:45:27.102Z,36.34
2016-10-25T05:46:26.418Z,36.24
2016-10-25T05:47:27.348Z,36.24
2016-10-25T05:48:26.884Z,36.44
2016-10-25T05:49:26.484Z,36.24
2016-10-25T05:50:27.455Z,36.24
2016-10-25T05:51:27.349Z,36.15
2016-10-25T05:52:26.296Z,36.44
2016-10-25T05:53:27.516Z,36.24
2016-10-25T05:54:27.110Z,36.34
2016-10-25T05:55:26.416Z,36.44
2016-10-25T05:56:27.583Z,36.63
2016-10-25T05:57:27.283Z,36.44
2016-10-25T05:58:26.641Z,36.53
2016-10-25T05:59:26.504Z,36.53
2016-10-25T06:00:27.604Z,36.44
2016-10-25T06:01:27.027Z,36.63
2016-10-25T06:02:26.528Z,36.53
2016-10-25T06:03:27.584Z,36.63
2016-10-25T06:04:27.197Z,36.53
2016-10-25T06:05:26.544Z,36.24
2016-10-25T06:06:27.426Z,36.24
2016-10-25T06:07:27.270Z,36.44
2016-10-25T06:08:26.596Z,36.24
2016-10-25T06:09:27.549Z,36.44
2016-10-25T06:10:27.392Z,36.34
2016-10-25T06:11:28.252Z,36.34
2016-10-25T06:12:26.281Z,36.24
2016-10-25T06:13:27.254Z,36.44
2016-10-25T06:14:26.904Z,36.15
2016-10-25T06:15:27.683Z,36.53
2016-10-25T06:16:27.640Z,36.44
2016-10-25T06:17:26.946Z,36.44
2016-10-25T06:18:26.635Z,36.63
2016-10-25T06:19:27.632Z,36.24
2016-10-25T06:20:26.860Z,36.15
2016-10-25T06:21:26.343Z,36.63
2016-10-25T06:22:27.405Z,36.53
2016-10-25T06:23:26.931Z,36.44
2016-10-25T06:24:26.742Z,36.63
2016-10-25T06:25:27.435Z,36.63
2016-10-25T06:26:27.362Z,36.72
2016-10-25T06:27:26.383Z,36.92
2016-10-25T06:28:26.393Z,37.4
2016-10-25T06:29:27.539Z,36.82
2016-10-25T06:30:26.534Z,36.82
2016-10-25T06:31:26.413Z,37.3
2016-10-25T06:32:27.347Z,37.21
2016-10-25T06:33:26.917Z,37.4
2016-10-25T06:34:26.431Z,37.3
2016-10-25T06:35:27.781Z,37.3
2016-10-25T06:36:27.039Z,37.3
2016-10-25T06:37:26.767Z,37.4
2016-10-25T06:38:27.914Z,37.21
2016-10-25T06:39:28.659Z,37.21
2016-10-25T06:40:26.475Z,37.3
2016-10-25T06:41:27.616Z,37.12
2016-10-25T06:42:27.338Z,37.21
2016-10-25T06:43:26.877Z,37.3
2016-10-25T06:44:27.894Z,36.63
2016-10-25T06:45:27.460Z,36.82
2016-10-25T06:46:26.830Z,36.63
2016-10-25T06:47:28.186Z,36.82
2016-10-25T06:48:27.268Z,36.53
2016-10-25T06:49:28.443Z,36.72
2016-10-25T06:50:27.861Z,36.82
2016-10-25T06:51:27.704Z,36.82
2016-10-25T06:52:27.062Z,36.72
2016-10-25T06:53:27.928Z,36.92
2016-10-25T06:54:27.882Z,36.92
2016-10-25T06:55:27.136Z,36.82
2016-10-25T06:56:26.584Z,36.72
2016-10-25T06:57:28.005Z,36.92
2016-10-25T06:58:27.323Z,36.82
2016-10-25T06:59:26.918Z,36.82
2016-10-25T07:00:27.664Z,36.82
2016-10-25T07:01:27.116Z,36.92
2016-10-25T07:02:26.627Z,36.72
2016-10-25T07:03:28.059Z,36.82
2016-10-25T07:04:27.553Z,36.82
2016-10-25T07:05:27.009Z,36.92
2016-10-25T07:06:27.714Z,36.82
2016-10-25T07:07:27.363Z,36.92
2016-10-25T07:08:26.675Z,36.82
2016-10-25T07:09:26.673Z,36.82
2016-10-25T07:10:27.799Z,36.92
2016-10-25T07:11:26.844Z,37.02
2016-10-25T07:12:26.697Z,36.82
2016-10-25T07:13:27.973Z,36.63
2016-10-25T07:14:27.278Z,36.92
2016-10-25T07:15:26.715Z,37.02
2016-10-25T07:16:28.095Z,36.92
2016-10-25T07:17:27.352Z,37.02
2016-10-25T07:18:27.051Z,36.92
2016-10-25T07:19:27.913Z,36.92
2016-10-25T07:20:27.526Z,36.44
2016-10-25T07:21:27.071Z,36.44
2016-10-25T07:22:28.127Z,36.16
2016-10-25T07:23:27.337Z,35.39
2016-10-25T07:24:26.828Z,35.12
2016-10-25T07:25:27.927Z,35.12
2016-10-25T07:26:27.821Z,34.55
2016-10-25T07:27:27.163Z,34.36
2016-10-25T07:28:28.051Z,33.6
2016-10-25T07:29:27.949Z,33.31
2016-10-25T07:30:26.941Z,32.94
2016-10-25T07:31:26.825Z,32.56
2016-10-25T07:32:27.753Z,32.17
2016-10-25T07:33:27.012Z,32.09
2016-10-25T07:34:26.848Z,31.7
2016-10-25T07:35:28.141Z,31.5
2016-10-25T07:36:27.498Z,31.21
2016-10-25T07:37:27.181Z,31.23
2016-10-25T07:38:28.313Z,30.94
2016-10-25T07:39:27.309Z,31.13
2016-10-25T07:40:27.202Z,30.76
2016-10-25T07:41:28.071Z,30.57
2016-10-25T07:42:27.749Z,30.18
2016-10-25T07:43:27.224Z,30.37
2016-10-25T07:44:27.966Z,29.88
2016-10-25T07:45:27.865Z,29.79
2016-10-25T07:46:27.296Z,30.19
2016-10-25T07:47:26.936Z,30.29
2016-10-25T07:48:28.039Z,30.29
2016-10-25T07:49:26.986Z,30.19
2016-10-25T07:50:26.958Z,29.71
2016-10-25T07:51:27.800Z,29.61
2016-10-25T07:52:27.484Z,29.8
2016-10-25T07:53:28.439Z,29.71
2016-10-25T07:54:28.253Z,29.71
2016-10-25T07:55:27.275Z,29.51
2016-10-25T07:56:27.003Z,29.51
2016-10-25T07:57:28.126Z,29.51
2016-10-25T07:58:27.402Z,29.41
2016-10-25T07:59:27.023Z,29.41
2016-10-25T08:00:28.393Z,29.61
2016-10-25T08:01:27.837Z,29.62
2016-10-25T08:02:27.045Z,29.51
2016-10-25T08:03:28.398Z,29.62
2016-10-25T08:04:27.961Z,29.61
2016-10-25T08:05:27.070Z,29.61
2016-10-25T08:06:28.255Z,29.61
2016-10-25T08:07:27.821Z,29.61
2016-10-25T08:08:27.086Z,29.14
2016-10-25T08:09:28.378Z,29.04
2016-10-25T08:10:28.254Z,29.14
2016-10-25T08:11:27.202Z,29.12
2016-10-25T08:12:27.180Z,29.24
2016-10-25T08:13:28.379Z,29.24
2016-10-25T08:14:27.377Z,29.24
2016-10-25T08:15:28.553Z,29.43
2016-10-25T08:16:28.191Z,29.33
2016-10-25T08:17:27.808Z,29.43
2016-10-25T08:18:27.209Z,29.33
2016-10-25T08:19:28.675Z,29.43
2016-10-25T08:20:27.623Z,29.33
2016-10-25T08:21:27.231Z,29.33
2016-10-25T08:22:28.567Z,29.33
2016-10-25T08:23:29.695Z,29.33
2016-10-25T08:24:27.204Z,29.24
2016-10-25T08:25:28.385Z,29.04
2016-10-25T08:26:28.176Z,29.35
2016-10-25T08:27:27.592Z,29.24
2016-10-25T08:28:28.457Z,29.43
2016-10-25T08:29:28.354Z,29.33
2016-10-25T08:30:27.368Z,29.14
2016-10-25T08:31:28.631Z,29.14
2016-10-25T08:32:28.164Z,29.43
2016-10-25T08:33:27.814Z,29.43
2016-10-25T08:34:27.287Z,29.43
2016-10-25T08:35:28.935Z,29.33
2016-10-25T08:36:27.906Z,29.33
2016-10-25T08:37:27.300Z,29.24
2016-10-25T08:38:28.722Z,29.43
2016-10-25T08:39:28.028Z,29.24
2016-10-25T08:40:27.327Z,29.24
2016-10-25T08:41:28.694Z,29.43
2016-10-25T08:42:28.169Z,29.43
2016-10-25T08:43:27.396Z,29.33
2016-10-25T08:44:28.709Z,29.14
2016-10-25T08:45:28.291Z,29.43
2016-10-25T08:46:27.685Z,28.94
2016-10-25T08:47:28.530Z,29.15
2016-10-25T08:48:28.447Z,29.04
2016-10-25T08:49:27.754Z,29.24
2016-10-25T08:50:27.400Z,29.24
2016-10-25T08:51:28.259Z,29.05
2016-10-25T08:52:27.828Z,29.05
2016-10-25T08:53:28.797Z,28.96
2016-10-25T08:54:28.711Z,29.14
2016-10-25T08:55:27.739Z,28.96
2016-10-25T08:56:27.498Z,29.14
2016-10-25T08:57:28.766Z,28.94
2016-10-25T08:58:28.072Z,29.04
2016-10-25T08:59:27.780Z,29.05
2016-10-25T09:00:28.627Z,29.05
2016-10-25T09:01:27.947Z,29.05
2016-10-25T09:02:27.800Z,29.14
2016-10-25T09:03:28.660Z,29.05
2016-10-25T09:04:28.368Z,29.05
2016-10-25T09:05:27.835Z,29.24
2016-10-25T09:06:28.650Z,29.25
2016-10-25T09:07:28.178Z,29.15
2016-10-25T09:08:27.849Z,29.15
2016-10-25T09:09:27.541Z,29.05
2016-10-25T09:10:28.668Z,29.14
2016-10-25T09:11:27.693Z,29.05
2016-10-25T09:12:27.567Z,29.25
2016-10-25T09:13:28.742Z,29.35
2016-10-25T09:14:28.079Z,29.04
2016-10-25T09:15:27.640Z,28.94
2016-10-25T09:16:28.600Z,29.05
2016-10-25T09:17:28.244Z,29.15
2016-10-25T09:18:27.612Z,28.96
2016-10-25T09:19:28.716Z,28.96
2016-10-25T09:20:29.845Z,29.05
2016-10-25T09:21:27.944Z,29.05
2016-10-25T09:22:29.012Z,29.15
2016-10-25T09:23:28.464Z,29.04
2016-10-25T09:24:29.267Z,28.96
2016-10-25T09:25:29.022Z,29.05
2016-10-25T09:26:28.272Z,28.96
2016-10-25T09:27:28.040Z,28.96
2016-10-25T09:28:28.747Z,28.96
2016-10-25T09:29:28.396Z,29.15
2016-10-25T09:30:28.078Z,29.15
2016-10-25T09:31:27.707Z,28.96
2016-10-25T09:32:28.882Z,28.86
2016-10-25T09:33:28.138Z,29.15
2016-10-25T09:34:27.779Z,28.96
2016-10-25T09:35:28.691Z,28.96
2016-10-25T09:36:27.949Z,28.86
2016-10-25T09:37:27.802Z,28.96
2016-10-25T09:38:28.823Z,29.15
2016-10-25T09:39:28.449Z,29.15
2016-10-25T09:40:27.825Z,28.96
2016-10-25T09:41:29.248Z,29.05
2016-10-25T09:42:28.249Z,29.15
2016-10-25T09:43:27.798Z,29.05
2016-10-25T09:44:29.157Z,29.05
2016-10-25T09:45:28.736Z,29.05
2016-10-25T09:46:28.134Z,29.05
2016-10-25T09:47:29.238Z,29.05
2016-10-25T09:48:28.550Z,29.05
2016-10-25T09:49:27.849Z,29.15
2016-10-25T09:50:28.982Z,29.05
2016-10-25T09:51:28.926Z,29.05
2016-10-25T09:52:28.241Z,29.05
2016-10-25T09:53:29.269Z,29.05
2016-10-25T09:54:29.051Z,28.96
2016-10-25T09:55:28.044Z,29.05
2016-10-25T09:56:29.329Z,28.96
2016-10-25T09:57:28.972Z,29.35
2016-10-25T09:58:28.541Z,29.25
2016-10-25T09:59:27.927Z,29.15
2016-10-25T10:00:29.393Z,29.05
2016-10-25T10:01:28.377Z,29.05
2016-10-25T10:02:27.944Z,29.05
2016-10-25T10:03:29.322Z,29.05
2016-10-25T10:04:28.773Z,29.05
2016-10-25T10:05:28.278Z,29.05
2016-10-25T10:06:29.335Z,29.05
2016-10-25T10:07:28.586Z,28.96
2016-10-25T10:08:27.991Z,29.15
2016-10-25T10:09:29.177Z,29.05
2016-10-25T10:10:29.034Z,29.05
2016-10-25T10:11:28.649Z,29.05
2016-10-25T10:12:29.366Z,29.25
2016-10-25T10:13:28.839Z,29.44
2016-10-25T10:14:28.257Z,29.35
2016-10-25T10:15:28.092Z,29.35
2016-10-25T10:16:29.001Z,29.15
2016-10-25T10:17:28.278Z,29.05
2016-10-25T10:18:29.434Z,29.05
2016-10-25T10:19:29.439Z,29.15
2016-10-25T10:20:28.449Z,28.96
2016-10-25T10:21:28.085Z,29.15
2016-10-25T10:22:29.559Z,28.96
2016-10-25T10:23:28.894Z,28.96
2016-10-25T10:24:28.472Z,29.15
2016-10-25T10:25:29.166Z,29.05
2016-10-25T10:26:29.009Z,29.05
2016-10-25T10:27:28.549Z,29.05
2016-10-25T10:28:29.269Z,28.96
2016-10-25T10:29:28.903Z,29.15
2016-10-25T10:30:28.571Z,28.96
2016-10-25T10:31:29.400Z,29.05
2016-10-25T10:32:29.005Z,29.15
2016-10-25T10:33:28.490Z,28.96
2016-10-25T10:34:29.518Z,28.96
2016-10-25T10:35:29.412Z,28.96
2016-10-25T10:36:28.684Z,28.96
2016-10-25T10:37:29.637Z,29.25
2016-10-25T10:38:29.220Z,28.96
2016-10-25T10:39:28.543Z,29.05
2016-10-25T10:40:28.545Z,28.96
2016-10-25T10:41:29.664Z,29.05
2016-10-25T10:42:28.914Z,29.05
2016-10-25T10:43:28.567Z,29.15
2016-10-25T10:44:29.635Z,29.15
2016-10-25T10:45:29.089Z,29.05
2016-10-25T10:46:28.601Z,28.96
2016-10-25T10:47:29.655Z,29.05
2016-10-25T10:48:28.906Z,29.05
2016-10-25T10:49:28.662Z,29.05
2016-10-25T10:50:29.582Z,29.15
2016-10-25T10:51:29.283Z,29.15
2016-10-25T10:52:28.327Z,29.05
2016-10-25T10:53:28.330Z,29.05
2016-10-25T10:54:29.142Z,29.05
2016-10-25T10:55:28.450Z,29.15
2016-10-25T10:56:29.750Z,28.96
2016-10-25T10:57:29.316Z,28.96
2016-10-25T10:58:28.577Z,29.15
2016-10-25T10:59:29.740Z,29.35
2016-10-25T11:00:29.750Z,29.05
2016-10-25T11:01:29.063Z,29.05
2016-10-25T11:02:28.761Z,29.05
2016-10-25T11:03:29.609Z,29.25
2016-10-25T11:04:29.183Z,29.25
2016-10-25T11:05:28.739Z,29.15
2016-10-25T11:06:29.808Z,29.25
2016-10-25T11:07:29.040Z,29.35
2016-10-25T11:08:28.756Z,29.15
2016-10-25T11:09:29.613Z,29.25
2016-10-25T11:10:29.164Z,28.96
2016-10-25T11:11:28.467Z,29.25
2016-10-25T11:12:28.475Z,29.15
2016-10-25T11:13:29.552Z,29.25
2016-10-25T11:14:28.908Z,29.25
2016-10-25T11:15:29.827Z,29.05
2016-10-25T11:16:29.721Z,28.96
2016-10-25T11:17:28.667Z,29.15
2016-10-25T11:18:29.951Z,29.25
2016-10-25T11:19:29.485Z,29.15
2016-10-25T11:20:28.839Z,29.15
2016-10-25T11:21:28.857Z,29.35
2016-10-25T11:22:29.655Z,29.35
2016-10-25T11:23:28.973Z,29.44
2016-10-25T11:24:28.887Z,29.35
2016-10-25T11:25:29.944Z,29.44
2016-10-25T11:26:29.398Z,29.35
2016-10-25T11:27:28.590Z,29.35
2016-10-25T11:28:29.958Z,29.35
2016-10-25T11:29:29.206Z,29.35
2016-10-25T11:30:28.936Z,29.54
2016-10-25T11:31:29.800Z,29.44
2016-10-25T11:32:29.679Z,29.44
2016-10-25T11:33:29.018Z,29.35
2016-10-25T11:34:29.923Z,29.35
2016-10-25T11:35:29.454Z,29.15
2016-10-25T11:36:29.120Z,29.25
2016-10-25T11:37:28.668Z,29.25
2016-10-25T11:38:29.888Z,29.93
2016-10-25T11:39:29.260Z,29.05
2016-10-25T11:40:30.145Z,29.14
2016-10-25T11:41:30.111Z,29.54
2016-10-25T11:42:29.384Z,29.05
2016-10-25T11:43:29.024Z,29.62
2016-10-25T11:44:29.872Z,29.54
2016-10-25T11:45:29.513Z,29.43
2016-10-25T11:46:29.048Z,29.64
2016-10-25T11:47:29.811Z,29.62
2016-10-25T11:48:29.640Z,29.64
2016-10-25T11:49:29.072Z,29.62
2016-10-25T11:50:29.924Z,29.74
2016-10-25T11:51:29.755Z,29.43
2016-10-25T11:52:29.096Z,29.72
2016-10-25T11:53:30.048Z,29.43
2016-10-25T11:54:29.612Z,29.72
2016-10-25T11:55:29.191Z,29.91
2016-10-25T11:56:28.816Z,29.52
2016-10-25T11:57:29.739Z,29.33
2016-10-25T11:58:29.030Z,29.62
2016-10-25T11:59:28.853Z,29.74
2016-10-25T12:00:30.171Z,29.72
2016-10-25T12:01:29.480Z,29.44
2016-10-25T12:02:28.864Z,29.52
2016-10-25T12:03:29.980Z,29.43
2016-10-25T12:04:29.604Z,29.54
2016-10-25T12:05:29.256Z,29.52
2016-10-25T12:06:30.255Z,29.62
2016-10-25T12:07:29.713Z,29.52
2016-10-25T12:08:29.268Z,29.43
2016-10-25T12:09:29.991Z,29.74
2016-10-25T12:10:29.833Z,29.43
2016-10-25T12:11:28.931Z,29.33
2016-10-25T12:12:30.127Z,29.64
2016-10-25T12:13:29.955Z,29.44
2016-10-25T12:14:28.953Z,29.33
2016-10-25T12:15:30.286Z,29.43
2016-10-25T12:16:30.133Z,29.44
2016-10-25T12:17:29.386Z,29.33
2016-10-25T12:18:30.357Z,29.62
2016-10-25T12:19:30.199Z,29.64
2016-10-25T12:20:29.248Z,29.62
2016-10-25T12:21:29.006Z,29.64
2016-10-25T12:22:30.064Z,29.44
2016-10-25T12:23:29.690Z,29.54
2016-10-25T12:24:29.345Z,29.44
2016-10-25T12:25:30.499Z,29.43
2016-10-25T12:26:29.923Z,29.52
2016-10-25T12:27:29.050Z,29.52
2016-10-25T12:28:30.437Z,29.44
2016-10-25T12:29:29.943Z,29.43
2016-10-25T12:30:29.441Z,29.62
2016-10-25T12:31:30.278Z,29.52
2016-10-25T12:32:30.049Z,29.52
2016-10-25T12:33:29.411Z,29.72
2016-10-25T12:34:30.331Z,29.62
2016-10-25T12:35:29.929Z,29.52
2016-10-25T12:36:29.486Z,29.43
2016-10-25T12:37:29.133Z,29.52
2016-10-25T12:38:30.295Z,29.43
2016-10-25T12:39:29.715Z,29.52
2016-10-25T12:40:30.517Z,29.43
2016-10-25T12:41:30.523Z,29.52
2016-10-25T12:42:29.779Z,29.52
2016-10-25T12:43:29.176Z,29.62
2016-10-25T12:44:30.281Z,29.62
2016-10-25T12:45:29.594Z,29.52
2016-10-25T12:46:29.201Z,29.62
2016-10-25T12:47:30.255Z,29.43
2016-10-25T12:48:30.024Z,29.43
2016-10-25T12:49:29.223Z,29.52
2016-10-25T12:50:30.583Z,29.52
2016-10-25T12:51:29.863Z,29.33
2016-10-25T12:52:29.565Z,29.43
2016-10-25T12:53:30.436Z,29.43